sensor_id;sensor_type;location;lat;lon;timestamp;P1;durP1;ratioP1;P2;durP2;ratioP2
41661;SDS011;27351;45.992;12.666;2022-10-26T00:00:05;3.93;;;1.50;;
41661;SDS011;27351;45.992;12.666;2022-10-26T00:02:37;3.80;;;1.40;;
41661;SDS011;27351;45.992;12.666;2022-10-26T00:05:02;3.17;;;1.20;;
41661;SDS011;27351;45.992;12.666;2022-10-26T00:07:28;2.83;;;1.20;;
41661;SDS011;27351;45.992;12.666;2022-10-26T00:09:54;2.63;;;1.13;;
41661;SDS011;27351;45.992;12.666;2022-10-26T00:12:20;1.97;;;1.10;;
41661;SDS011;27351;45.992;12.666;2022-10-26T00:14:49;2.40;;;1.00;;
41661;SDS011;27351;45.992;12.666;2022-10-26T00:17:17;4.90;;;1.10;;
41661;SDS011;27351;45.992;12.666;2022-10-26T00:19:43;3.17;;;1.30;;
41661;SDS011;27351;45.992;12.666;2022-10-26T00:22:09;2.77;;;0.80;;
41661;SDS011;27351;45.992;12.666;2022-10-26T00:24:34;2.80;;;1.00;;
41661;SDS011;27351;45.992;12.666;2022-10-26T00:27:07;1.73;;;0.97;;
41661;SDS011;27351;45.992;12.666;2022-10-26T00:29:33;2.93;;;1.00;;
41661;SDS011;27351;45.992;12.666;2022-10-26T00:31:59;2.58;;;0.90;;
41661;SDS011;27351;45.992;12.666;2022-10-26T00:34:24;2.30;;;1.00;;
41661;SDS011;27351;45.992;12.666;2022-10-26T00:36:50;1.77;;;0.77;;
41661;SDS011;27351;45.992;12.666;2022-10-26T00:39:16;2.60;;;1.00;;
41661;SDS011;27351;45.992;12.666;2022-10-26T00:41:42;1.60;;;0.63;;
41661;SDS011;27351;45.992;12.666;2022-10-26T00:46:52;2.00;;;0.93;;
41661;SDS011;27351;45.992;12.666;2022-10-26T00:49:18;3.20;;;0.90;;
41661;SDS011;27351;45.992;12.666;2022-10-26T00:51:45;2.88;;;1.10;;
41661;SDS011;27351;45.992;12.666;2022-10-26T00:54:14;1.80;;;0.85;;
41661;SDS011;27351;45.992;12.666;2022-10-26T00:56:43;2.00;;;0.95;;
41661;SDS011;27351;45.992;12.666;2022-10-26T00:59:09;1.27;;;0.70;;
41661;SDS011;27351;45.992;12.666;2022-10-26T01:01:37;2.85;;;0.80;;
41661;SDS011;27351;45.992;12.666;2022-10-26T01:04:03;4.93;;;1.50;;
41661;SDS011;27351;45.992;12.666;2022-10-26T01:06:29;4.10;;;1.20;;
41661;SDS011;27351;45.992;12.666;2022-10-26T01:08:56;3.25;;;1.60;;
41661;SDS011;27351;45.992;12.666;2022-10-26T01:11:22;4.13;;;1.57;;
41661;SDS011;27351;45.992;12.666;2022-10-26T01:13:48;3.65;;;1.20;;
41661;SDS011;27351;45.992;12.666;2022-10-26T01:16:19;2.55;;;1.20;;
41661;SDS011;27351;45.992;12.666;2022-10-26T01:31:43;3.88;;;1.05;;
41661;SDS011;27351;45.992;12.666;2022-10-26T01:34:12;2.67;;;1.25;;
41661;SDS011;27351;45.992;12.666;2022-10-26T01:37:13;2.97;;;1.40;;
41661;SDS011;27351;45.992;12.666;2022-10-26T01:42:00;4.15;;;1.40;;
41661;SDS011;27351;45.992;12.666;2022-10-26T01:44:44;3.45;;;1.30;;
41661;SDS011;27351;45.992;12.666;2022-10-26T01:47:13;3.28;;;1.33;;
41661;SDS011;27351;45.992;12.666;2022-10-26T01:49:47;3.50;;;1.38;;
41661;SDS011;27351;45.992;12.666;2022-10-26T01:52:14;2.80;;;1.23;;
41661;SDS011;27351;45.992;12.666;2022-10-26T01:54:39;4.93;;;1.53;;
41661;SDS011;27351;45.992;12.666;2022-10-26T01:57:06;3.07;;;1.20;;
41661;SDS011;27351;45.992;12.666;2022-10-26T02:07:50;4.10;;;1.20;;
41661;SDS011;27351;45.992;12.666;2022-10-26T02:12:49;2.90;;;1.30;;
41661;SDS011;27351;45.992;12.666;2022-10-26T02:15:38;3.72;;;1.50;;
41661;SDS011;27351;45.992;12.666;2022-10-26T02:20:50;3.83;;;1.52;;
41661;SDS011;27351;45.992;12.666;2022-10-26T02:23:18;3.83;;;1.40;;
41661;SDS011;27351;45.992;12.666;2022-10-26T02:25:48;4.78;;;1.20;;
41661;SDS011;27351;45.992;12.666;2022-10-26T02:28:16;2.90;;;1.20;;
41661;SDS011;27351;45.992;12.666;2022-10-26T02:30:43;3.83;;;1.30;;
41661;SDS011;27351;45.992;12.666;2022-10-26T02:33:10;3.42;;;1.25;;
41661;SDS011;27351;45.992;12.666;2022-10-26T02:35:37;4.55;;;1.15;;
41661;SDS011;27351;45.992;12.666;2022-10-26T02:38:05;5.53;;;1.38;;
41661;SDS011;27351;45.992;12.666;2022-10-26T02:40:32;4.00;;;1.50;;
41661;SDS011;27351;45.992;12.666;2022-10-26T02:42:59;3.17;;;1.30;;
41661;SDS011;27351;45.992;12.666;2022-10-26T02:45:27;3.90;;;1.67;;
41661;SDS011;27351;45.992;12.666;2022-10-26T02:47:55;2.47;;;1.23;;
41661;SDS011;27351;45.992;12.666;2022-10-26T02:50:22;3.22;;;1.60;;
41661;SDS011;27351;45.992;12.666;2022-10-26T02:53:00;2.43;;;1.23;;
41661;SDS011;27351;45.992;12.666;2022-10-26T02:55:29;3.78;;;1.30;;
41661;SDS011;27351;45.992;12.666;2022-10-26T02:57:58;4.40;;;1.90;;
41661;SDS011;27351;45.992;12.666;2022-10-26T03:00:24;4.55;;;1.92;;
41661;SDS011;27351;45.992;12.666;2022-10-26T03:02:51;3.47;;;1.63;;
41661;SDS011;27351;45.992;12.666;2022-10-26T03:05:24;4.75;;;1.50;;
41661;SDS011;27351;45.992;12.666;2022-10-26T03:07:51;4.53;;;1.30;;
41661;SDS011;27351;45.992;12.666;2022-10-26T03:10:17;3.15;;;1.23;;
41661;SDS011;27351;45.992;12.666;2022-10-26T03:12:42;2.80;;;1.20;;
41661;SDS011;27351;45.992;12.666;2022-10-26T03:15:08;3.50;;;1.40;;
41661;SDS011;27351;45.992;12.666;2022-10-26T03:17:33;4.18;;;1.40;;
41661;SDS011;27351;45.992;12.666;2022-10-26T03:19:59;4.13;;;1.30;;
41661;SDS011;27351;45.992;12.666;2022-10-26T03:22:25;3.10;;;1.40;;
41661;SDS011;27351;45.992;12.666;2022-10-26T03:24:50;3.30;;;1.30;;
41661;SDS011;27351;45.992;12.666;2022-10-26T03:27:16;4.85;;;1.50;;
41661;SDS011;27351;45.992;12.666;2022-10-26T03:29:41;5.80;;;1.60;;
41661;SDS011;27351;45.992;12.666;2022-10-26T03:32:07;3.27;;;1.53;;
41661;SDS011;27351;45.992;12.666;2022-10-26T03:34:32;3.27;;;1.50;;
41661;SDS011;27351;45.992;12.666;2022-10-26T03:36:58;3.92;;;1.70;;
41661;SDS011;27351;45.992;12.666;2022-10-26T03:39:24;4.72;;;1.60;;
41661;SDS011;27351;45.992;12.666;2022-10-26T03:41:49;4.32;;;1.42;;
41661;SDS011;27351;45.992;12.666;2022-10-26T03:44:15;4.93;;;1.60;;
41661;SDS011;27351;45.992;12.666;2022-10-26T03:46:41;3.53;;;1.52;;
41661;SDS011;27351;45.992;12.666;2022-10-26T03:49:06;3.93;;;1.60;;
41661;SDS011;27351;45.992;12.666;2022-10-26T03:51:32;2.40;;;1.30;;
41661;SDS011;27351;45.992;12.666;2022-10-26T03:53:57;4.27;;;1.77;;
41661;SDS011;27351;45.992;12.666;2022-10-26T03:56:23;2.63;;;1.25;;
41661;SDS011;27351;45.992;12.666;2022-10-26T03:58:48;3.17;;;1.57;;
41661;SDS011;27351;45.992;12.666;2022-10-26T04:01:14;3.23;;;1.20;;
41661;SDS011;27351;45.992;12.666;2022-10-26T04:03:39;4.05;;;1.67;;
41661;SDS011;27351;45.992;12.666;2022-10-26T04:06:05;3.17;;;1.23;;
41661;SDS011;27351;45.992;12.666;2022-10-26T04:08:31;3.37;;;1.53;;
41661;SDS011;27351;45.992;12.666;2022-10-26T04:10:56;4.47;;;1.70;;
41661;SDS011;27351;45.992;12.666;2022-10-26T04:13:22;5.93;;;1.52;;
41661;SDS011;27351;45.992;12.666;2022-10-26T04:15:48;2.90;;;1.38;;
41661;SDS011;27351;45.992;12.666;2022-10-26T04:18:13;3.28;;;1.33;;
41661;SDS011;27351;45.992;12.666;2022-10-26T04:20:39;3.63;;;1.30;;
41661;SDS011;27351;45.992;12.666;2022-10-26T04:23:08;3.85;;;1.50;;
41661;SDS011;27351;45.992;12.666;2022-10-26T04:25:35;3.65;;;1.75;;
41661;SDS011;27351;45.992;12.666;2022-10-26T04:28:01;4.13;;;1.50;;
41661;SDS011;27351;45.992;12.666;2022-10-26T04:30:27;3.80;;;1.58;;
41661;SDS011;27351;45.992;12.666;2022-10-26T04:32:53;5.15;;;1.30;;
41661;SDS011;27351;45.992;12.666;2022-10-26T04:35:19;3.15;;;1.58;;
41661;SDS011;27351;45.992;12.666;2022-10-26T04:37:44;5.70;;;1.70;;
41661;SDS011;27351;45.992;12.666;2022-10-26T04:40:10;3.37;;;1.47;;
41661;SDS011;27351;45.992;12.666;2022-10-26T04:42:45;5.57;;;1.77;;
41661;SDS011;27351;45.992;12.666;2022-10-26T04:45:12;3.90;;;1.77;;
41661;SDS011;27351;45.992;12.666;2022-10-26T04:47:41;4.55;;;1.90;;
41661;SDS011;27351;45.992;12.666;2022-10-26T04:50:07;5.45;;;1.42;;
41661;SDS011;27351;45.992;12.666;2022-10-26T04:52:33;3.17;;;1.52;;
41661;SDS011;27351;45.992;12.666;2022-10-26T04:55:00;3.25;;;1.30;;
41661;SDS011;27351;45.992;12.666;2022-10-26T04:57:33;3.33;;;1.33;;
41661;SDS011;27351;45.992;12.666;2022-10-26T04:59:59;4.95;;;1.63;;
41661;SDS011;27351;45.992;12.666;2022-10-26T05:02:26;3.83;;;1.55;;
41661;SDS011;27351;45.992;12.666;2022-10-26T05:04:52;4.50;;;2.00;;
41661;SDS011;27351;45.992;12.666;2022-10-26T05:07:18;3.77;;;1.60;;
41661;SDS011;27351;45.992;12.666;2022-10-26T05:09:43;5.00;;;1.57;;
41661;SDS011;27351;45.992;12.666;2022-10-26T05:12:09;4.82;;;2.17;;
41661;SDS011;27351;45.992;12.666;2022-10-26T05:14:35;4.70;;;1.70;;
41661;SDS011;27351;45.992;12.666;2022-10-26T05:17:00;4.72;;;1.92;;
41661;SDS011;27351;45.992;12.666;2022-10-26T05:19:26;3.63;;;1.45;;
41661;SDS011;27351;45.992;12.666;2022-10-26T05:21:51;3.30;;;1.38;;
41661;SDS011;27351;45.992;12.666;2022-10-26T05:24:18;2.55;;;1.30;;
41661;SDS011;27351;45.992;12.666;2022-10-26T05:26:44;4.88;;;1.70;;
41661;SDS011;27351;45.992;12.666;2022-10-26T05:29:10;3.78;;;1.42;;
41661;SDS011;27351;45.992;12.666;2022-10-26T05:31:35;4.13;;;1.30;;
41661;SDS011;27351;45.992;12.666;2022-10-26T05:34:01;3.53;;;1.33;;
41661;SDS011;27351;45.992;12.666;2022-10-26T05:36:26;3.03;;;1.40;;
41661;SDS011;27351;45.992;12.666;2022-10-26T05:38:52;9.85;;;2.08;;
41661;SDS011;27351;45.992;12.666;2022-10-26T05:41:18;3.47;;;1.80;;
41661;SDS011;27351;45.992;12.666;2022-10-26T05:43:45;3.33;;;1.60;;
41661;SDS011;27351;45.992;12.666;2022-10-26T05:46:11;4.32;;;1.60;;
41661;SDS011;27351;45.992;12.666;2022-10-26T05:48:37;4.87;;;1.73;;
41661;SDS011;27351;45.992;12.666;2022-10-26T05:51:03;5.17;;;1.43;;
41661;SDS011;27351;45.992;12.666;2022-10-26T05:53:28;3.60;;;1.50;;
41661;SDS011;27351;45.992;12.666;2022-10-26T05:55:55;2.80;;;1.45;;
41661;SDS011;27351;45.992;12.666;2022-10-26T05:58:21;3.72;;;1.67;;
41661;SDS011;27351;45.992;12.666;2022-10-26T06:06:10;3.75;;;1.80;;
41661;SDS011;27351;45.992;12.666;2022-10-26T06:08:38;4.22;;;1.75;;
41661;SDS011;27351;45.992;12.666;2022-10-26T06:11:03;6.65;;;1.60;;
41661;SDS011;27351;45.992;12.666;2022-10-26T06:13:29;6.05;;;2.00;;
41661;SDS011;27351;45.992;12.666;2022-10-26T06:26:11;5.53;;;1.90;;
41661;SDS011;27351;45.992;12.666;2022-10-26T06:28:56;6.15;;;2.20;;
41661;SDS011;27351;45.992;12.666;2022-10-26T06:31:23;7.65;;;2.03;;
41661;SDS011;27351;45.992;12.666;2022-10-26T06:33:50;6.53;;;2.00;;
41661;SDS011;27351;45.992;12.666;2022-10-26T06:36:19;7.18;;;1.92;;
41661;SDS011;27351;45.992;12.666;2022-10-26T06:38:46;4.65;;;1.67;;
41661;SDS011;27351;45.992;12.666;2022-10-26T06:41:12;5.85;;;1.88;;
41661;SDS011;27351;45.992;12.666;2022-10-26T06:43:40;6.50;;;2.25;;
41661;SDS011;27351;45.992;12.666;2022-10-26T06:48:42;4.97;;;2.15;;
41661;SDS011;27351;45.992;12.666;2022-10-26T06:51:10;4.82;;;1.95;;
41661;SDS011;27351;45.992;12.666;2022-10-26T06:53:41;6.05;;;2.15;;
41661;SDS011;27351;45.992;12.666;2022-10-26T06:56:08;6.18;;;2.20;;
41661;SDS011;27351;45.992;12.666;2022-10-26T06:58:35;7.35;;;2.60;;
41661;SDS011;27351;45.992;12.666;2022-10-26T07:01:02;6.93;;;2.17;;
41661;SDS011;27351;45.992;12.666;2022-10-26T07:03:27;6.30;;;2.40;;
41661;SDS011;27351;45.992;12.666;2022-10-26T07:05:53;8.33;;;2.70;;
41661;SDS011;27351;45.992;12.666;2022-10-26T07:08:19;8.37;;;2.87;;
41661;SDS011;27351;45.992;12.666;2022-10-26T07:10:45;10.57;;;3.20;;
41661;SDS011;27351;45.992;12.666;2022-10-26T07:13:10;10.02;;;3.67;;
41661;SDS011;27351;45.992;12.666;2022-10-26T07:15:37;12.97;;;4.73;;
41661;SDS011;27351;45.992;12.666;2022-10-26T07:18:03;11.55;;;4.20;;
41661;SDS011;27351;45.992;12.666;2022-10-26T07:20:36;9.93;;;4.10;;
41661;SDS011;27351;45.992;12.666;2022-10-26T07:23:02;9.55;;;3.88;;
41661;SDS011;27351;45.992;12.666;2022-10-26T07:25:31;13.97;;;4.60;;
41661;SDS011;27351;45.992;12.666;2022-10-26T07:27:57;10.43;;;4.60;;
41661;SDS011;27351;45.992;12.666;2022-10-26T07:30:24;10.57;;;4.60;;
41661;SDS011;27351;45.992;12.666;2022-10-26T07:32:50;9.75;;;4.15;;
41661;SDS011;27351;45.992;12.666;2022-10-26T07:35:15;8.50;;;3.97;;
41661;SDS011;27351;45.992;12.666;2022-10-26T07:37:41;12.85;;;4.25;;
41661;SDS011;27351;45.992;12.666;2022-10-26T07:40:06;9.13;;;4.60;;
41661;SDS011;27351;45.992;12.666;2022-10-26T07:42:33;9.53;;;4.13;;
41661;SDS011;27351;45.992;12.666;2022-10-26T07:44:58;11.27;;;4.10;;
41661;SDS011;27351;45.992;12.666;2022-10-26T07:47:24;10.98;;;4.25;;
41661;SDS011;27351;45.992;12.666;2022-10-26T07:49:50;10.37;;;3.70;;
41661;SDS011;27351;45.992;12.666;2022-10-26T07:52:15;15.60;;;4.07;;
41661;SDS011;27351;45.992;12.666;2022-10-26T07:54:41;8.85;;;3.40;;
41661;SDS011;27351;45.992;12.666;2022-10-26T07:57:06;10.50;;;3.42;;
41661;SDS011;27351;45.992;12.666;2022-10-26T07:59:32;8.40;;;3.40;;
41661;SDS011;27351;45.992;12.666;2022-10-26T08:01:58;9.97;;;3.67;;
41661;SDS011;27351;45.992;12.666;2022-10-26T08:04:23;8.10;;;3.17;;
41661;SDS011;27351;45.992;12.666;2022-10-26T08:06:49;7.20;;;3.22;;
41661;SDS011;27351;45.992;12.666;2022-10-26T08:09:14;7.43;;;2.90;;
41661;SDS011;27351;45.992;12.666;2022-10-26T08:11:40;5.57;;;2.10;;
41661;SDS011;27351;45.992;12.666;2022-10-26T08:14:06;9.33;;;2.63;;
41661;SDS011;27351;45.992;12.666;2022-10-26T08:16:31;5.20;;;2.00;;
41661;SDS011;27351;45.992;12.666;2022-10-26T08:18:59;7.18;;;3.13;;
41661;SDS011;27351;45.992;12.666;2022-10-26T08:21:24;5.67;;;2.47;;
41661;SDS011;27351;45.992;12.666;2022-10-26T08:23:50;5.97;;;2.43;;
41661;SDS011;27351;45.992;12.666;2022-10-26T08:26:16;6.70;;;2.22;;
41661;SDS011;27351;45.992;12.666;2022-10-26T08:28:42;5.47;;;2.22;;
41661;SDS011;27351;45.992;12.666;2022-10-26T08:31:08;5.32;;;1.85;;
41661;SDS011;27351;45.992;12.666;2022-10-26T08:33:34;4.13;;;1.93;;
41661;SDS011;27351;45.992;12.666;2022-10-26T08:36:00;5.47;;;2.03;;
41661;SDS011;27351;45.992;12.666;2022-10-26T08:38:26;5.20;;;1.70;;
41661;SDS011;27351;45.992;12.666;2022-10-26T08:40:52;5.40;;;1.87;;
41661;SDS011;27351;45.992;12.666;2022-10-26T08:43:20;3.78;;;1.58;;
41661;SDS011;27351;45.992;12.666;2022-10-26T08:45:55;3.75;;;1.70;;
41661;SDS011;27351;45.992;12.666;2022-10-26T08:48:31;4.63;;;1.63;;
41661;SDS011;27351;45.992;12.666;2022-10-26T08:51:02;3.75;;;1.88;;
41661;SDS011;27351;45.992;12.666;2022-10-26T08:56:08;5.67;;;1.67;;
41661;SDS011;27351;45.992;12.666;2022-10-26T08:58:37;4.85;;;1.90;;
41661;SDS011;27351;45.992;12.666;2022-10-26T09:01:03;5.15;;;1.50;;
41661;SDS011;27351;45.992;12.666;2022-10-26T09:03:29;6.70;;;1.98;;
41661;SDS011;27351;45.992;12.666;2022-10-26T09:11:19;5.07;;;2.20;;
41661;SDS011;27351;45.992;12.666;2022-10-26T09:16:44;4.20;;;1.80;;
41661;SDS011;27351;45.992;12.666;2022-10-26T09:24:01;4.80;;;2.40;;
41661;SDS011;27351;45.992;12.666;2022-10-26T09:26:36;5.10;;;2.20;;
41661;SDS011;27351;45.992;12.666;2022-10-26T09:29:08;5.45;;;2.20;;
41661;SDS011;27351;45.992;12.666;2022-10-26T09:31:39;7.78;;;2.72;;
41661;SDS011;27351;45.992;12.666;2022-10-26T09:34:05;5.85;;;1.88;;
41661;SDS011;27351;45.992;12.666;2022-10-26T09:36:32;5.70;;;2.17;;
41661;SDS011;27351;45.992;12.666;2022-10-26T09:39:11;7.18;;;2.50;;
41661;SDS011;27351;45.992;12.666;2022-10-26T09:41:41;9.02;;;2.30;;
41661;SDS011;27351;45.992;12.666;2022-10-26T09:44:17;8.98;;;2.63;;
41661;SDS011;27351;45.992;12.666;2022-10-26T09:46:48;4.93;;;2.05;;
41661;SDS011;27351;45.992;12.666;2022-10-26T09:49:16;4.50;;;1.87;;
41661;SDS011;27351;45.992;12.666;2022-10-26T09:51:42;5.97;;;2.20;;
41661;SDS011;27351;45.992;12.666;2022-10-26T09:54:13;8.63;;;2.40;;
41661;SDS011;27351;45.992;12.666;2022-10-26T09:56:39;9.20;;;2.45;;
41661;SDS011;27351;45.992;12.666;2022-10-26T09:59:06;4.43;;;2.03;;
41661;SDS011;27351;45.992;12.666;2022-10-26T10:01:32;5.70;;;2.17;;
41661;SDS011;27351;45.992;12.666;2022-10-26T10:06:46;6.10;;;2.60;;
41661;SDS011;27351;45.992;12.666;2022-10-26T10:09:19;5.97;;;2.72;;
41661;SDS011;27351;45.992;12.666;2022-10-26T10:11:55;6.57;;;2.70;;
41661;SDS011;27351;45.992;12.666;2022-10-26T10:14:32;7.13;;;2.53;;
41661;SDS011;27351;45.992;12.666;2022-10-26T10:17:02;7.00;;;2.30;;
41661;SDS011;27351;45.992;12.666;2022-10-26T10:21:54;8.03;;;2.53;;
41661;SDS011;27351;45.992;12.666;2022-10-26T10:24:28;10.88;;;2.75;;
41661;SDS011;27351;45.992;12.666;2022-10-26T10:27:01;8.63;;;3.17;;
41661;SDS011;27351;45.992;12.666;2022-10-26T10:29:28;7.88;;;2.78;;
41661;SDS011;27351;45.992;12.666;2022-10-26T10:31:55;9.40;;;3.10;;
41661;SDS011;27351;45.992;12.666;2022-10-26T10:34:21;10.98;;;3.30;;
41661;SDS011;27351;45.992;12.666;2022-10-26T10:36:46;9.43;;;4.00;;
41661;SDS011;27351;45.992;12.666;2022-10-26T10:41:57;7.72;;;3.35;;
41661;SDS011;27351;45.992;12.666;2022-10-26T10:44:29;8.63;;;3.90;;
41661;SDS011;27351;45.992;12.666;2022-10-26T10:47:03;8.43;;;3.60;;
41661;SDS011;27351;45.992;12.666;2022-10-26T10:49:30;6.70;;;3.42;;
41661;SDS011;27351;45.992;12.666;2022-10-26T10:51:55;10.98;;;4.40;;
41661;SDS011;27351;45.992;12.666;2022-10-26T10:54:24;7.30;;;3.67;;
41661;SDS011;27351;45.992;12.666;2022-10-26T10:56:52;11.60;;;3.70;;
41661;SDS011;27351;45.992;12.666;2022-10-26T10:59:24;7.03;;;3.30;;
41661;SDS011;27351;45.992;12.666;2022-10-26T11:07:06;6.55;;;3.20;;
41661;SDS011;27351;45.992;12.666;2022-10-26T11:09:33;9.70;;;3.13;;
41661;SDS011;27351;45.992;12.666;2022-10-26T11:12:02;8.27;;;3.22;;
41661;SDS011;27351;45.992;12.666;2022-10-26T11:14:33;9.45;;;3.33;;
41661;SDS011;27351;45.992;12.666;2022-10-26T11:22:08;7.55;;;2.97;;
41661;SDS011;27351;45.992;12.666;2022-10-26T11:24:38;8.80;;;2.90;;
41661;SDS011;27351;45.992;12.666;2022-10-26T11:29:46;9.88;;;3.67;;
41661;SDS011;27351;45.992;12.666;2022-10-26T11:32:18;7.68;;;3.20;;
41661;SDS011;27351;45.992;12.666;2022-10-26T11:34:47;7.28;;;3.10;;
41661;SDS011;27351;45.992;12.666;2022-10-26T11:39:56;7.68;;;3.47;;
41661;SDS011;27351;45.992;12.666;2022-10-26T11:42:35;9.32;;;3.60;;
41661;SDS011;27351;45.992;12.666;2022-10-26T11:45:08;7.07;;;3.08;;
41661;SDS011;27351;45.992;12.666;2022-10-26T11:47:56;8.35;;;3.15;;
41661;SDS011;27351;45.992;12.666;2022-10-26T11:50:26;8.52;;;3.53;;
41661;SDS011;27351;45.992;12.666;2022-10-26T11:52:56;8.45;;;3.67;;
41661;SDS011;27351;45.992;12.666;2022-10-26T11:55:23;7.22;;;3.60;;
41661;SDS011;27351;45.992;12.666;2022-10-26T11:57:49;10.13;;;3.27;;
41661;SDS011;27351;45.992;12.666;2022-10-26T12:00:16;8.23;;;3.33;;
41661;SDS011;27351;45.992;12.666;2022-10-26T12:02:45;8.23;;;3.37;;
41661;SDS011;27351;45.992;12.666;2022-10-26T12:07:40;7.15;;;3.28;;
41661;SDS011;27351;45.992;12.666;2022-10-26T12:10:11;7.00;;;3.17;;
41661;SDS011;27351;45.992;12.666;2022-10-26T12:12:43;9.52;;;3.72;;
41661;SDS011;27351;45.992;12.666;2022-10-26T12:15:20;10.30;;;3.50;;
41661;SDS011;27351;45.992;12.666;2022-10-26T12:17:51;8.73;;;3.40;;
41661;SDS011;27351;45.992;12.666;2022-10-26T12:21:05;11.23;;;4.10;;
41661;SDS011;27351;45.992;12.666;2022-10-26T12:23:05;7.30;;;3.55;;
41661;SDS011;27351;45.992;12.666;2022-10-26T12:25:33;11.52;;;3.80;;
41661;SDS011;27351;45.992;12.666;2022-10-26T12:27:59;8.10;;;3.27;;
41661;SDS011;27351;45.992;12.666;2022-10-26T12:30:26;7.38;;;3.30;;
41661;SDS011;27351;45.992;12.666;2022-10-26T12:32:53;7.73;;;3.27;;
41661;SDS011;27351;45.992;12.666;2022-10-26T12:35:35;7.95;;;3.60;;
41661;SDS011;27351;45.992;12.666;2022-10-26T12:38:25;7.35;;;3.53;;
41661;SDS011;27351;45.992;12.666;2022-10-26T12:40:47;8.68;;;3.60;;
41661;SDS011;27351;45.992;12.666;2022-10-26T12:45:39;8.40;;;3.60;;
41661;SDS011;27351;45.992;12.666;2022-10-26T12:48:19;8.27;;;3.65;;
41661;SDS011;27351;45.992;12.666;2022-10-26T12:50:45;8.38;;;3.10;;
41661;SDS011;27351;45.992;12.666;2022-10-26T12:53:12;9.32;;;3.85;;
41661;SDS011;27351;45.992;12.666;2022-10-26T13:03:32;9.65;;;3.40;;
41661;SDS011;27351;45.992;12.666;2022-10-26T13:06:13;8.30;;;3.47;;
41661;SDS011;27351;45.992;12.666;2022-10-26T13:08:45;11.57;;;3.80;;
41661;SDS011;27351;45.992;12.666;2022-10-26T13:11:15;9.40;;;3.30;;
41661;SDS011;27351;45.992;12.666;2022-10-26T13:13:41;8.55;;;3.33;;
41661;SDS011;27351;45.992;12.666;2022-10-26T13:16:11;9.67;;;4.00;;
41661;SDS011;27351;45.992;12.666;2022-10-26T13:18:41;7.87;;;3.60;;
41661;SDS011;27351;45.992;12.666;2022-10-26T13:21:08;10.17;;;4.00;;
41661;SDS011;27351;45.992;12.666;2022-10-26T13:23:37;10.68;;;3.70;;
41661;SDS011;27351;45.992;12.666;2022-10-26T13:26:05;7.50;;;3.15;;
41661;SDS011;27351;45.992;12.666;2022-10-26T13:30:57;7.85;;;3.47;;
41661;SDS011;27351;45.992;12.666;2022-10-26T13:33:24;7.80;;;3.83;;
41661;SDS011;27351;45.992;12.666;2022-10-26T13:35:52;9.73;;;3.80;;
41661;SDS011;27351;45.992;12.666;2022-10-26T13:38:20;8.02;;;3.42;;
41661;SDS011;27351;45.992;12.666;2022-10-26T13:40:47;10.75;;;3.67;;
41661;SDS011;27351;45.992;12.666;2022-10-26T13:43:15;7.25;;;3.63;;
41661;SDS011;27351;45.992;12.666;2022-10-26T13:45:54;10.43;;;3.63;;
41661;SDS011;27351;45.992;12.666;2022-10-26T13:48:28;10.13;;;3.63;;
41661;SDS011;27351;45.992;12.666;2022-10-26T13:50:56;7.85;;;3.50;;
41661;SDS011;27351;45.992;12.666;2022-10-26T13:55:53;8.50;;;3.50;;
41661;SDS011;27351;45.992;12.666;2022-10-26T13:58:41;8.38;;;3.20;;
41661;SDS011;27351;45.992;12.666;2022-10-26T14:03:36;8.93;;;3.55;;
41661;SDS011;27351;45.992;12.666;2022-10-26T14:06:05;9.80;;;3.35;;
41661;SDS011;27351;45.992;12.666;2022-10-26T14:08:31;7.47;;;3.20;;
41661;SDS011;27351;45.992;12.666;2022-10-26T14:10:57;8.13;;;3.72;;
41661;SDS011;27351;45.992;12.666;2022-10-26T14:13:24;8.60;;;3.38;;
41661;SDS011;27351;45.992;12.666;2022-10-26T14:15:50;8.73;;;3.63;;
41661;SDS011;27351;45.992;12.666;2022-10-26T14:18:17;9.82;;;3.50;;
41661;SDS011;27351;45.992;12.666;2022-10-26T14:20:55;6.88;;;3.45;;
41661;SDS011;27351;45.992;12.666;2022-10-26T14:23:55;8.77;;;3.42;;
41661;SDS011;27351;45.992;12.666;2022-10-26T14:26:27;8.77;;;3.70;;
41661;SDS011;27351;45.992;12.666;2022-10-26T14:28:54;7.82;;;3.30;;
41661;SDS011;27351;45.992;12.666;2022-10-26T14:31:27;10.85;;;3.85;;
41661;SDS011;27351;45.992;12.666;2022-10-26T14:33:53;8.65;;;3.80;;
41661;SDS011;27351;45.992;12.666;2022-10-26T14:36:20;7.50;;;3.67;;
41661;SDS011;27351;45.992;12.666;2022-10-26T14:38:47;8.52;;;3.78;;
41661;SDS011;27351;45.992;12.666;2022-10-26T14:41:16;7.68;;;3.42;;
41661;SDS011;27351;45.992;12.666;2022-10-26T14:43:42;10.93;;;3.45;;
41661;SDS011;27351;45.992;12.666;2022-10-26T14:46:15;7.27;;;2.83;;
41661;SDS011;27351;45.992;12.666;2022-10-26T14:48:52;9.85;;;3.72;;
41661;SDS011;27351;45.992;12.666;2022-10-26T14:51:19;10.38;;;3.33;;
41661;SDS011;27351;45.992;12.666;2022-10-26T14:53:47;9.13;;;3.77;;
41661;SDS011;27351;45.992;12.666;2022-10-26T14:56:21;8.65;;;3.47;;
41661;SDS011;27351;45.992;12.666;2022-10-26T14:58:47;9.18;;;4.15;;
41661;SDS011;27351;45.992;12.666;2022-10-26T15:01:23;8.83;;;3.57;;
41661;SDS011;27351;45.992;12.666;2022-10-26T15:04:20;10.23;;;3.53;;
41661;SDS011;27351;45.992;12.666;2022-10-26T15:06:41;9.18;;;3.35;;
41661;SDS011;27351;45.992;12.666;2022-10-26T15:11:52;7.95;;;3.35;;
41661;SDS011;27351;45.992;12.666;2022-10-26T15:14:18;8.27;;;3.83;;
41661;SDS011;27351;45.992;12.666;2022-10-26T15:16:49;7.72;;;3.72;;
41661;SDS011;27351;45.992;12.666;2022-10-26T15:19:15;8.43;;;3.55;;
41661;SDS011;27351;45.992;12.666;2022-10-26T15:21:47;6.95;;;3.15;;
41661;SDS011;27351;45.992;12.666;2022-10-26T15:26:46;10.63;;;3.87;;
41661;SDS011;27351;45.992;12.666;2022-10-26T15:31:59;7.55;;;3.42;;
41661;SDS011;27351;45.992;12.666;2022-10-26T15:34:25;8.13;;;3.22;;
41661;SDS011;27351;45.992;12.666;2022-10-26T15:36:50;6.57;;;3.17;;
41661;SDS011;27351;45.992;12.666;2022-10-26T15:39:16;6.80;;;3.37;;
41661;SDS011;27351;45.992;12.666;2022-10-26T15:41:45;9.33;;;4.07;;
41661;SDS011;27351;45.992;12.666;2022-10-26T15:44:12;6.72;;;2.95;;
41661;SDS011;27351;45.992;12.666;2022-10-26T15:46:40;8.65;;;3.45;;
41661;SDS011;27351;45.992;12.666;2022-10-26T15:49:06;11.07;;;3.97;;
41661;SDS011;27351;45.992;12.666;2022-10-26T15:51:32;7.97;;;3.35;;
41661;SDS011;27351;45.992;12.666;2022-10-26T15:54:00;11.23;;;4.78;;
41661;SDS011;27351;45.992;12.666;2022-10-26T15:56:26;10.52;;;3.65;;
41661;SDS011;27351;45.992;12.666;2022-10-26T15:58:52;8.23;;;3.37;;
41661;SDS011;27351;45.992;12.666;2022-10-26T16:01:19;8.48;;;3.65;;
41661;SDS011;27351;45.992;12.666;2022-10-26T16:03:46;8.30;;;3.83;;
41661;SDS011;27351;45.992;12.666;2022-10-26T16:06:16;8.27;;;4.15;;
41661;SDS011;27351;45.992;12.666;2022-10-26T16:08:43;9.23;;;3.90;;
41661;SDS011;27351;45.992;12.666;2022-10-26T16:11:12;9.40;;;4.57;;
41661;SDS011;27351;45.992;12.666;2022-10-26T16:13:37;12.20;;;4.70;;
41661;SDS011;27351;45.992;12.666;2022-10-26T16:16:03;15.40;;;4.80;;
41661;SDS011;27351;45.992;12.666;2022-10-26T16:18:29;12.03;;;4.63;;
41661;SDS011;27351;45.992;12.666;2022-10-26T16:20:54;13.80;;;4.60;;
41661;SDS011;27351;45.992;12.666;2022-10-26T16:23:20;11.60;;;4.78;;
41661;SDS011;27351;45.992;12.666;2022-10-26T16:25:46;9.20;;;4.00;;
41661;SDS011;27351;45.992;12.666;2022-10-26T16:28:13;10.23;;;3.90;;
41661;SDS011;27351;45.992;12.666;2022-10-26T16:30:38;9.38;;;4.75;;
41661;SDS011;27351;45.992;12.666;2022-10-26T16:33:04;10.27;;;4.47;;
41661;SDS011;27351;45.992;12.666;2022-10-26T16:35:30;10.90;;;3.83;;